Terminal Aerodrome Forecast
Issued by NWS

Home | Current Version | Previous Version | Text Only | Print | Product List | Glossary On
Versions: 1 2 3 4 5 6 7 8 9 10 11 12 13 14 15 16 17 18 19 20 21 22 23 24 25 26 27 28 29 30
000
FTUS42 KRAH 010345 AAB
TAFINT
TAF AMD
KINT 010345Z 0104/0124 07003KT P6SM -RA SCT025 BKN050
      TEMPO 0104/0108 5SM -RA OVC025
     FM010800 VRB03KT 2SM RA BR OVC005
     FM011800 VRB05KT P6SM VCSH BKN012=

USA.gov is the U.S. government's official web portal to all federal, state and local government web resources and services.